createdAt,value
2023-02-22T00:04:50.874Z,9.51
2023-02-22T00:09:52.293Z,9.52
2023-02-22T00:14:53.887Z,9.51
2023-02-22T00:19:55.326Z,9.51
2023-02-22T00:24:57.605Z,9.40
2023-02-22T00:29:59.769Z,9.30
2023-02-22T00:35:06.875Z,9.20
2023-02-22T00:40:14.658Z,9.08
2023-02-22T00:45:19.036Z,8.95
2023-02-22T00:50:20.867Z,8.83
2023-02-22T00:55:27.960Z,8.75
2023-02-22T01:00:36.321Z,8.73
2023-02-22T01:05:40.815Z,8.74
2023-02-22T01:10:43.263Z,8.77
2023-02-22T01:15:45.181Z,8.80
2023-02-22T01:20:47.878Z,8.85
2023-02-22T01:25:50.105Z,8.87
2023-02-22T01:30:51.866Z,8.89
2023-02-22T01:35:53.518Z,8.92
2023-02-22T01:40:54.973Z,8.98
2023-02-22T01:46:04.073Z,8.98
2023-02-22T01:51:11.978Z,8.97
2023-02-22T01:56:14.686Z,8.95
2023-02-22T02:01:18.063Z,8.93
2023-02-22T02:06:20.477Z,8.92
2023-02-22T02:11:25.530Z,8.94
2023-02-22T02:16:36.721Z,8.95
2023-02-22T02:21:44.267Z,8.99
2023-02-22T02:26:56.729Z,9.03
2023-02-22T02:32:09.978Z,9.05
2023-02-22T02:37:31.370Z,9.06
2023-02-22T02:42:43.397Z,9.05
2023-02-22T02:47:51.306Z,9.01
2023-02-22T02:52:56.756Z,9.03
2023-02-22T02:57:59.288Z,9.09
2023-02-22T03:03:21.128Z,9.14
2023-02-22T03:08:41.959Z,9.10
2023-02-22T03:14:17.660Z,9.02
2023-02-22T03:19:26.957Z,8.96
2023-02-22T03:25:10.279Z,8.97
2023-02-22T03:30:24.082Z,8.95
2023-02-22T03:35:30.527Z,8.87
2023-02-22T03:40:36.350Z,8.73
2023-02-22T03:45:43.334Z,8.68
2023-02-22T03:50:45.378Z,8.60
2023-02-22T03:55:52.758Z,8.45
2023-02-22T04:00:57.516Z,8.31
2023-02-22T04:05:59.078Z,8.25
2023-02-22T04:11:01.538Z,8.30
2023-02-22T04:16:05.421Z,8.42
2023-02-22T04:21:09.001Z,8.45
2023-02-22T04:26:15.906Z,8.39
2023-02-22T04:31:21.556Z,8.24
2023-02-22T04:36:24.562Z,8.13
2023-02-22T04:41:28.102Z,8.12
2023-02-22T04:46:29.729Z,8.11
2023-02-22T04:51:31.376Z,8.12
2023-02-22T04:56:40.344Z,8.17
2023-02-22T05:01:41.836Z,8.22
2023-02-22T05:06:44.926Z,8.31
2023-02-22T05:11:46.758Z,8.40
2023-02-22T05:16:49.766Z,8.48
2023-02-22T05:21:51.185Z,8.54
2023-02-22T05:26:53.192Z,8.61
2023-02-22T05:31:54.744Z,8.65
2023-02-22T05:36:56.569Z,8.67
2023-02-22T05:41:58.282Z,8.64
2023-02-22T05:46:59.706Z,8.63
2023-02-22T05:52:01.169Z,8.62
2023-02-22T05:57:02.617Z,8.60
2023-02-22T06:02:04.171Z,8.61
2023-02-22T06:07:06.410Z,8.63
2023-02-22T06:12:08.851Z,8.62
2023-02-22T06:17:10.249Z,8.59
2023-02-22T06:22:18.289Z,8.58
2023-02-22T06:27:19.740Z,8.60
2023-02-22T06:32:21.237Z,8.62
2023-02-22T06:37:22.781Z,8.64
2023-02-22T06:42:24.226Z,8.66
2023-02-22T06:47:25.734Z,8.69
2023-02-22T06:52:27.370Z,8.73
2023-02-22T06:57:28.764Z,8.84
2023-02-22T07:02:30.194Z,8.95
2023-02-22T07:07:31.714Z,9.03
2023-02-22T07:12:33.210Z,9.12
2023-02-22T07:17:34.609Z,9.20
2023-02-22T07:22:35.994Z,9.29
2023-02-22T07:27:38.905Z,9.34
2023-02-22T07:32:42.039Z,9.41
2023-02-22T07:37:44.261Z,9.47
2023-02-22T07:43:01.058Z,9.59
2023-02-22T07:48:04.496Z,9.70
2023-02-22T07:53:11.579Z,9.84
2023-02-22T07:58:15.172Z,9.97
2023-02-22T08:03:19.124Z,10.10
2023-02-22T08:08:20.992Z,10.24
2023-02-22T08:13:23.205Z,10.39
2023-02-22T08:18:25.493Z,10.50
2023-02-22T08:23:27.282Z,10.61
2023-02-22T08:28:28.720Z,10.70
2023-02-22T08:33:30.140Z,10.78
2023-02-22T08:38:33.891Z,10.90
2023-02-22T08:43:35.336Z,11.01
2023-02-22T08:48:36.783Z,11.15
2023-02-22T08:53:38.182Z,11.25
2023-02-22T08:58:39.604Z,11.38
2023-02-22T09:03:41.093Z,11.50
2023-02-22T09:08:42.522Z,11.60
2023-02-22T09:13:44.083Z,11.65
2023-02-22T09:18:45.552Z,11.71
2023-02-22T09:23:47.665Z,11.77
2023-02-22T09:28:50.154Z,11.80
2023-02-22T09:33:52.026Z,11.88
2023-02-22T09:38:53.473Z,11.94
2023-02-22T09:44:15.349Z,11.97
2023-02-22T09:49:39.128Z,12.00
2023-02-22T09:54:45.025Z,12.08
2023-02-22T10:00:15.693Z,12.15
2023-02-22T10:05:39.515Z,12.23
2023-02-22T10:10:46.736Z,12.33
2023-02-22T10:16:00.545Z,12.43
2023-02-22T10:21:24.852Z,12.56
2023-02-22T10:26:30.714Z,12.65
2023-02-22T10:31:37.770Z,12.76
2023-02-22T10:36:39.297Z,12.83
2023-02-22T10:41:48.902Z,12.91
2023-02-22T10:46:53.350Z,13.01
2023-02-22T10:52:00.981Z,13.09
2023-02-22T10:57:03.917Z,13.18
2023-02-22T11:02:33.610Z,13.29
2023-02-22T11:07:36.618Z,13.31
2023-02-22T11:12:41.219Z,13.34
2023-02-22T11:17:44.769Z,13.43
2023-02-22T11:22:46.334Z,13.46
2023-02-22T11:27:48.302Z,13.48
2023-02-22T11:32:54.409Z,13.53
2023-02-22T11:38:16.305Z,13.61
2023-02-22T11:43:20.301Z,13.68
2023-02-22T11:48:23.137Z,13.74
2023-02-22T11:53:39.790Z,13.77
2023-02-22T11:58:47.599Z,13.81
2023-02-22T12:04:28.167Z,13.80
2023-02-22T12:09:48.139Z,13.78
2023-02-22T12:15:02.866Z,13.78
2023-02-22T12:20:10.271Z,13.80
2023-02-22T12:25:22.913Z,13.80
2023-02-22T12:30:26.729Z,13.83
2023-02-22T12:35:34.822Z,13.91
2023-02-22T12:41:08.682Z,13.95
2023-02-22T12:46:22.784Z,13.96
2023-02-22T12:51:38.862Z,13.98
2023-02-22T12:56:55.599Z,14.02
2023-02-22T13:02:18.812Z,14.00
2023-02-22T13:07:26.470Z,13.98
2023-02-22T13:12:39.292Z,13.94
2023-02-22T13:18:10.627Z,13.83
2023-02-22T13:23:36.253Z,13.76
2023-02-22T13:28:46.931Z,13.73
2023-02-22T13:33:51.613Z,13.69
2023-02-22T13:39:12.250Z,13.66
2023-02-22T13:44:19.727Z,13.60
2023-02-22T13:49:39.052Z,13.55
2023-02-22T13:54:46.637Z,13.53
2023-02-22T13:59:48.285Z,13.51
2023-02-22T14:04:49.817Z,13.50
2023-02-22T14:09:53.491Z,13.48
2023-02-22T14:15:28.600Z,13.49
2023-02-22T14:20:35.930Z,13.52
2023-02-22T14:25:41.299Z,13.60
2023-02-22T14:30:42.898Z,13.61
2023-02-22T14:35:49.908Z,13.53
2023-02-22T14:41:03.321Z,13.46
2023-02-22T14:46:07.084Z,13.43
2023-02-22T14:51:31.231Z,13.35
2023-02-22T14:56:55.562Z,13.26
2023-02-22T15:02:11.982Z,13.14
2023-02-22T15:07:27.076Z,13.04
2023-02-22T15:12:31.424Z,12.95
2023-02-22T15:17:33.457Z,12.84
2023-02-22T15:22:36.754Z,12.70
2023-02-22T15:27:47.714Z,12.55
2023-02-22T15:33:03.240Z,12.40
2023-02-22T15:38:12.879Z,12.29
2023-02-22T15:43:24.056Z,12.17
2023-02-22T15:48:27.909Z,12.07
2023-02-22T15:53:40.271Z,11.98
2023-02-22T15:58:44.048Z,11.85
2023-02-22T16:03:55.430Z,11.74
2023-02-22T16:08:59.868Z,11.62
2023-02-22T16:14:04.726Z,11.51
2023-02-22T16:19:24.726Z,11.37
2023-02-22T16:24:28.504Z,11.27
2023-02-22T16:29:30.410Z,11.15
2023-02-22T16:34:32.117Z,11.04
2023-02-22T16:39:35.940Z,10.94
2023-02-22T16:44:37.364Z,10.86
2023-02-22T16:49:38.791Z,10.79
2023-02-22T16:54:45.030Z,10.71
2023-02-22T16:59:50.123Z,10.66
2023-02-22T17:04:51.650Z,10.59
2023-02-22T17:09:53.201Z,10.53
2023-02-22T17:14:54.698Z,10.46
2023-02-22T17:19:56.146Z,10.38
2023-02-22T17:24:57.650Z,10.28
2023-02-22T17:29:59.225Z,10.19
2023-02-22T17:35:00.664Z,10.15
2023-02-22T17:40:02.131Z,10.10
2023-02-22T17:45:03.764Z,10.07
2023-02-22T17:50:05.584Z,10.02
2023-02-22T17:55:07.475Z,9.94
2023-02-22T18:00:13.344Z,9.85
2023-02-22T18:05:17.713Z,9.75
2023-02-22T18:10:20.639Z,9.67
2023-02-22T18:15:22.155Z,9.60
2023-02-22T18:20:43.786Z,9.55
2023-02-22T18:26:07.633Z,9.53
2023-02-22T18:31:15.864Z,9.46
2023-02-22T18:36:28.397Z,9.43
2023-02-22T18:41:29.906Z,9.38
2023-02-22T18:46:31.389Z,9.33
2023-02-22T18:51:32.794Z,9.30
2023-02-22T18:56:34.283Z,9.23
2023-02-22T19:01:38.514Z,9.18
2023-02-22T19:06:41.300Z,9.12
2023-02-22T19:11:47.013Z,9.06
2023-02-22T19:16:49.955Z,9.01
2023-02-22T19:21:52.110Z,8.98
2023-02-22T19:26:57.406Z,8.96
2023-02-22T19:32:00.511Z,8.92
2023-02-22T19:37:05.100Z,8.88
2023-02-22T19:42:09.536Z,8.84
2023-02-22T19:47:11.084Z,8.78
2023-02-22T19:52:12.900Z,8.76
2023-02-22T19:57:14.605Z,8.71
2023-02-22T20:02:16.166Z,8.66
2023-02-22T20:07:17.944Z,8.67
2023-02-22T20:12:19.670Z,8.64
2023-02-22T20:17:21.337Z,8.60
2023-02-22T20:22:22.848Z,8.58
2023-02-22T20:27:24.477Z,8.56
2023-02-22T20:32:28.431Z,8.55
2023-02-22T20:37:33.308Z,8.54
2023-02-22T20:42:34.771Z,8.52
2023-02-22T20:47:36.390Z,8.50
2023-02-22T20:52:38.133Z,8.46
2023-02-22T20:57:40.155Z,8.46
2023-02-22T21:02:41.843Z,8.45
2023-02-22T21:07:43.364Z,8.46
2023-02-22T21:12:47.745Z,8.45
2023-02-22T21:17:49.303Z,8.45
2023-02-22T21:22:52.579Z,8.44
2023-02-22T21:27:54.192Z,8.44
2023-02-22T21:32:56.711Z,8.46
2023-02-22T21:37:58.194Z,8.51
2023-02-22T21:42:59.942Z,8.54
2023-02-22T21:48:01.498Z,8.55
2023-02-22T21:53:03.135Z,8.56
2023-02-22T21:58:05.855Z,8.53
2023-02-22T22:03:20.316Z,8.53
2023-02-22T22:08:22.019Z,8.53
2023-02-22T22:13:28.064Z,8.55
2023-02-22T22:18:29.535Z,8.59
2023-02-22T22:23:30.964Z,8.61
2023-02-22T22:28:32.438Z,8.62
2023-02-22T22:33:35.130Z,8.63
2023-02-22T22:38:40.335Z,8.63
2023-02-22T22:43:45.878Z,8.66
2023-02-22T22:48:47.525Z,8.67
2023-02-22T22:53:50.375Z,8.68
2023-02-22T22:58:54.420Z,8.66
2023-02-22T23:04:01.549Z,8.66
2023-02-22T23:09:11.671Z,8.67
2023-02-22T23:14:22.065Z,8.68
2023-02-22T23:19:24.105Z,8.67
2023-02-22T23:24:29.280Z,8.66
2023-02-22T23:29:30.718Z,8.68
2023-02-22T23:34:33.017Z,8.70
2023-02-22T23:39:34.422Z,8.70
2023-02-22T23:44:36.208Z,8.71
2023-02-22T23:49:38.358Z,8.68
2023-02-22T23:54:43.658Z,8.66
2023-02-22T23:59:46.299Z,8.65
